createdAt,value
2019-05-21T00:00:24.351Z,16.40
2019-05-21T00:02:52.750Z,16.40
2019-05-21T00:05:21.128Z,16.40
2019-05-21T00:07:49.527Z,16.40
2019-05-21T00:10:17.930Z,16.40
2019-05-21T00:12:46.328Z,16.30
2019-05-21T00:15:14.959Z,16.20
2019-05-21T00:17:43.396Z,16.20
2019-05-21T00:20:13.984Z,16.20
2019-05-21T00:22:42.333Z,16.20
2019-05-21T00:25:10.759Z,16.20
2019-05-21T00:27:39.141Z,16.10
2019-05-21T00:30:44.371Z,16.10
2019-05-21T00:33:49.150Z,16.00
2019-05-21T00:36:55.961Z,16.00
2019-05-21T00:40:01.257Z,16.00
2019-05-21T00:42:32.370Z,16.10
2019-05-21T00:45:00.766Z,16.10
2019-05-21T00:47:29.140Z,16.10
2019-05-21T00:49:57.531Z,16.20
2019-05-21T00:52:25.930Z,16.20
2019-05-21T00:54:54.876Z,16.20
2019-05-21T00:57:23.271Z,16.20
2019-05-21T00:59:51.699Z,16.20
2019-05-21T01:02:20.095Z,16.20
2019-05-21T01:05:00.191Z,16.20
2019-05-21T01:07:18.551Z,16.20
2019-05-21T01:09:46.935Z,16.20
2019-05-21T01:12:15.333Z,16.20
2019-05-21T01:14:43.764Z,16.30
2019-05-21T01:17:12.161Z,16.30
2019-05-21T01:19:40.537Z,16.30
2019-05-21T01:22:08.940Z,16.30
2019-05-21T01:24:37.358Z,16.30
2019-05-21T01:27:05.803Z,16.20
2019-05-21T01:29:34.753Z,16.20
2019-05-21T01:32:03.408Z,16.20
2019-05-21T01:34:32.047Z,16.20
2019-05-21T01:37:00.446Z,16.20
2019-05-21T01:39:28.873Z,16.20
2019-05-21T01:41:57.253Z,16.20
2019-05-21T01:44:25.646Z,16.20
2019-05-21T01:46:54.029Z,16.20
2019-05-21T01:49:22.428Z,16.20
2019-05-21T01:51:50.860Z,16.10
2019-05-21T01:54:19.260Z,16.10
2019-05-21T01:56:47.644Z,16.10
2019-05-21T01:59:16.065Z,16.10
2019-05-21T02:01:44.450Z,16.10
2019-05-21T02:04:12.837Z,16.10
2019-05-21T02:06:41.317Z,16.10
2019-05-21T02:09:09.709Z,16.10
2019-05-21T02:11:38.114Z,16.10
2019-05-21T02:14:06.491Z,16.20
2019-05-21T02:16:34.925Z,16.20
2019-05-21T02:19:03.319Z,16.20
2019-05-21T02:21:31.708Z,16.10
2019-05-21T02:24:00.137Z,16.10
2019-05-21T02:26:28.507Z,16.10
2019-05-21T02:28:56.912Z,16.10
2019-05-21T02:31:25.287Z,16.10
2019-05-21T02:33:53.766Z,16.10
2019-05-21T02:36:22.147Z,16.10
2019-05-21T02:38:50.538Z,16.10
2019-05-21T02:41:18.919Z,16.20
2019-05-21T02:43:47.331Z,16.20
2019-05-21T02:46:15.712Z,16.10
2019-05-21T02:48:44.103Z,16.10
2019-05-21T02:51:12.543Z,16.10
2019-05-21T02:53:40.907Z,16.10
2019-05-21T02:56:09.284Z,16.10
2019-05-21T02:58:37.700Z,16.20
2019-05-21T03:01:07.732Z,16.10
2019-05-21T03:03:36.187Z,16.10
2019-05-21T03:06:13.642Z,16.10
2019-05-21T03:08:34.680Z,16.10
2019-05-21T03:11:03.159Z,16.10
2019-05-21T03:13:31.593Z,16.20
2019-05-21T03:15:59.995Z,16.10
2019-05-21T03:18:28.412Z,16.10
2019-05-21T03:20:56.801Z,16.00
2019-05-21T03:23:25.195Z,16.00
2019-05-21T03:25:53.572Z,16.00
2019-05-21T03:28:21.952Z,16.00
2019-05-21T03:30:50.374Z,16.10
2019-05-21T03:33:18.816Z,16.10
2019-05-21T03:35:47.195Z,16.10
2019-05-21T03:38:15.596Z,16.20
2019-05-21T03:40:43.982Z,16.20
2019-05-21T03:43:12.374Z,16.20
2019-05-21T03:45:40.800Z,16.20
2019-05-21T03:48:09.212Z,16.30
2019-05-21T03:50:37.559Z,16.30
2019-05-21T03:53:05.992Z,16.40
2019-05-21T03:55:34.378Z,16.40
2019-05-21T03:58:03.034Z,16.40
2019-05-21T04:00:31.457Z,16.40
2019-05-21T04:02:59.860Z,16.40
2019-05-21T04:05:28.228Z,16.40
2019-05-21T04:07:56.661Z,16.30
2019-05-21T04:10:25.041Z,16.30
2019-05-21T04:13:06.286Z,16.30
2019-05-21T04:15:38.325Z,16.30
2019-05-21T04:18:20.642Z,16.30
2019-05-21T04:20:49.038Z,16.30
2019-05-21T04:23:17.445Z,16.40
2019-05-21T04:25:45.843Z,16.30
2019-05-21T04:28:14.234Z,16.30
2019-05-21T04:30:42.623Z,16.40
2019-05-21T04:33:11.053Z,16.40
2019-05-21T04:35:39.445Z,16.40
2019-05-21T04:38:07.826Z,16.40
2019-05-21T04:40:36.257Z,16.40
2019-05-21T04:43:04.631Z,16.40
2019-05-21T04:45:33.018Z,16.40
2019-05-21T04:48:01.439Z,16.40
2019-05-21T04:50:29.799Z,16.40
2019-05-21T04:52:58.200Z,16.50
2019-05-21T04:55:26.605Z,16.60
2019-05-21T04:57:54.997Z,16.60
2019-05-21T05:00:23.401Z,16.50
2019-05-21T05:02:51.796Z,16.60
2019-05-21T05:05:20.182Z,16.60
2019-05-21T05:07:48.597Z,16.60
2019-05-21T05:10:17.054Z,16.60
2019-05-21T05:12:45.421Z,16.70
2019-05-21T05:15:13.810Z,16.70
2019-05-21T05:17:42.281Z,16.80
2019-05-21T05:20:10.629Z,16.80
2019-05-21T05:22:39.007Z,16.80
2019-05-21T05:25:07.434Z,17.00
2019-05-21T05:27:35.827Z,17.20
2019-05-21T05:30:06.605Z,17.50
2019-05-21T05:32:35.027Z,17.60
2019-05-21T05:35:06.813Z,17.80
2019-05-21T05:37:44.011Z,18.00
2019-05-21T05:40:07.976Z,18.10
2019-05-21T05:42:36.418Z,18.30
2019-05-21T05:45:06.739Z,18.40
2019-05-21T05:47:35.135Z,18.40
2019-05-21T05:50:09.511Z,18.50
2019-05-21T05:52:37.901Z,18.90
2019-05-21T05:55:07.151Z,19.20
2019-05-21T05:57:35.548Z,19.40
2019-05-21T06:00:05.164Z,19.50
2019-05-21T06:02:33.567Z,19.60
2019-05-21T06:05:01.952Z,19.70
2019-05-21T06:07:30.360Z,19.70
2019-05-21T06:09:58.769Z,19.70
2019-05-21T06:12:27.154Z,19.60
2019-05-21T06:14:56.365Z,19.50
2019-05-21T06:17:24.807Z,19.40
2019-05-21T06:19:53.206Z,19.40
2019-05-21T06:22:21.588Z,19.40
2019-05-21T06:24:49.984Z,19.40
2019-05-21T06:27:18.368Z,19.30
2019-05-21T06:29:46.771Z,19.40
2019-05-21T06:32:15.198Z,19.40
2019-05-21T06:34:43.579Z,19.50
2019-05-21T06:37:11.963Z,19.50
2019-05-21T06:39:40.390Z,19.60
2019-05-21T06:42:08.775Z,19.70
2019-05-21T06:44:37.185Z,19.70
2019-05-21T06:47:05.573Z,19.60
2019-05-21T06:49:33.961Z,19.70
2019-05-21T06:52:02.368Z,19.50
2019-05-21T06:54:30.771Z,19.40
2019-05-21T06:56:59.168Z,19.40
2019-05-21T06:59:27.596Z,19.40
2019-05-21T07:01:55.998Z,19.30
2019-05-21T07:04:24.391Z,19.30
2019-05-21T07:06:52.808Z,19.40
2019-05-21T07:09:21.237Z,19.50
2019-05-21T07:11:49.685Z,19.60
2019-05-21T07:14:18.087Z,19.60
2019-05-21T07:16:46.475Z,19.70
2019-05-21T07:19:14.900Z,19.80
2019-05-21T07:21:43.264Z,19.80
2019-05-21T07:24:11.658Z,19.90
2019-05-21T07:26:40.203Z,20.00
2019-05-21T07:29:08.661Z,20.00
2019-05-21T07:31:37.157Z,20.10
2019-05-21T07:34:05.543Z,20.10
2019-05-21T07:36:34.732Z,20.20
2019-05-21T07:39:03.982Z,20.10
2019-05-21T07:41:32.433Z,20.10
2019-05-21T07:44:00.889Z,20.20
2019-05-21T07:46:29.792Z,20.20
2019-05-21T07:48:58.168Z,20.40
2019-05-21T07:51:26.731Z,20.30
2019-05-21T07:53:55.216Z,20.40
2019-05-21T07:56:23.616Z,20.30
2019-05-21T07:58:52.022Z,20.20
2019-05-21T08:01:20.416Z,20.20
2019-05-21T08:03:48.839Z,20.30
2019-05-21T08:06:17.223Z,20.30
2019-05-21T08:08:45.602Z,20.40
2019-05-21T08:11:14.025Z,20.50
2019-05-21T08:13:43.815Z,20.60
2019-05-21T08:16:12.226Z,20.60
2019-05-21T08:18:40.621Z,20.60
2019-05-21T08:21:08.999Z,20.60
2019-05-21T08:23:37.419Z,20.60
2019-05-21T08:26:05.827Z,20.60
2019-05-21T08:28:34.218Z,20.70
2019-05-21T08:31:02.625Z,20.70
2019-05-21T08:33:31.055Z,20.70
2019-05-21T08:35:59.445Z,20.80
2019-05-21T08:38:27.882Z,20.80
2019-05-21T08:40:56.364Z,20.90
2019-05-21T08:43:24.751Z,21.00
2019-05-21T08:45:53.132Z,21.10
2019-05-21T08:48:21.608Z,21.10
2019-05-21T08:50:50.114Z,21.20
2019-05-21T08:53:18.489Z,21.20
2019-05-21T08:55:46.942Z,21.30
2019-05-21T08:58:15.298Z,21.30
2019-05-21T09:00:43.671Z,21.40
2019-05-21T09:03:12.123Z,21.50
2019-05-21T09:05:40.508Z,21.60
2019-05-21T09:08:08.886Z,21.60
2019-05-21T09:10:40.467Z,21.60
2019-05-21T09:13:08.903Z,21.60
2019-05-21T09:15:37.285Z,21.80
2019-05-21T09:18:05.975Z,21.80
2019-05-21T09:20:34.412Z,21.90
2019-05-21T09:23:02.810Z,21.80
2019-05-21T09:25:31.185Z,21.90
2019-05-21T09:27:59.598Z,21.70
2019-05-21T09:30:27.975Z,21.70
2019-05-21T09:32:56.347Z,21.60
2019-05-21T09:35:24.794Z,21.50
2019-05-21T09:37:53.192Z,21.30
2019-05-21T09:40:22.511Z,21.30
2019-05-21T09:42:50.921Z,21.20
2019-05-21T09:45:19.308Z,21.10
2019-05-21T09:47:47.668Z,21.00
2019-05-21T09:50:16.765Z,20.90
2019-05-21T09:52:45.147Z,20.90
2019-05-21T09:55:13.538Z,20.90
2019-05-21T09:57:49.709Z,20.80
2019-05-21T10:00:38.293Z,20.80
2019-05-21T10:03:08.312Z,20.80
2019-05-21T10:05:36.711Z,20.80
2019-05-21T10:08:05.276Z,20.60
2019-05-21T10:10:33.689Z,20.60
2019-05-21T10:13:02.098Z,20.60
2019-05-21T10:15:30.467Z,20.80
2019-05-21T10:17:58.859Z,20.80
2019-05-21T10:20:27.526Z,20.80
2019-05-21T10:22:55.907Z,21.00
2019-05-21T10:25:24.291Z,21.10
2019-05-21T10:27:52.705Z,21.30
2019-05-21T10:30:21.091Z,21.40
2019-05-21T10:32:49.483Z,21.50
2019-05-21T10:35:17.909Z,21.60
2019-05-21T10:37:54.606Z,21.60
2019-05-21T10:40:16.500Z,21.60
2019-05-21T10:42:45.047Z,21.60
2019-05-21T10:45:13.407Z,21.60
2019-05-21T10:47:41.808Z,21.70
2019-05-21T10:50:10.200Z,21.90
2019-05-21T10:52:38.572Z,21.90
2019-05-21T10:55:06.967Z,22.00
2019-05-21T10:57:35.355Z,21.90
2019-05-21T11:00:10.607Z,21.90
2019-05-21T11:02:49.513Z,22.00
2019-05-21T11:05:28.945Z,22.00
2019-05-21T11:08:21.767Z,22.20
2019-05-21T11:10:27.546Z,22.40
2019-05-21T11:12:55.947Z,22.60
2019-05-21T11:15:24.555Z,22.60
2019-05-21T11:18:09.099Z,22.70
2019-05-21T11:20:22.988Z,22.70
2019-05-21T11:22:51.390Z,22.80
2019-05-21T11:25:19.795Z,22.70
2019-05-21T11:27:48.181Z,22.50
2019-05-21T11:30:16.744Z,22.40
2019-05-21T11:32:47.932Z,22.50
2019-05-21T11:35:15.178Z,22.50
2019-05-21T11:37:47.478Z,22.50
2019-05-21T11:40:13.695Z,22.50
2019-05-21T11:42:42.057Z,22.70
2019-05-21T11:45:10.425Z,22.90
2019-05-21T11:47:38.819Z,23.00
2019-05-21T11:50:08.042Z,23.10
2019-05-21T11:52:36.472Z,23.10
2019-05-21T11:55:06.480Z,23.00
2019-05-21T11:57:34.932Z,22.90
2019-05-21T12:00:05.786Z,22.70
2019-05-21T12:02:34.173Z,22.60
2019-05-21T12:05:02.556Z,22.60
2019-05-21T12:07:30.955Z,22.50
2019-05-21T12:09:59.363Z,22.50
2019-05-21T12:12:27.755Z,22.40
2019-05-21T12:14:56.137Z,22.30
2019-05-21T12:17:24.559Z,22.20
2019-05-21T12:19:52.949Z,22.10
2019-05-21T12:22:21.338Z,22.20
2019-05-21T12:24:49.727Z,22.10
2019-05-21T12:27:18.182Z,22.10
2019-05-21T12:29:46.610Z,22.10
2019-05-21T12:32:14.992Z,22.10
2019-05-21T12:34:43.368Z,22.10
2019-05-21T12:37:11.802Z,22.00
2019-05-21T12:39:40.172Z,21.90
2019-05-21T12:42:08.592Z,21.80
2019-05-21T12:44:36.972Z,21.60
2019-05-21T12:47:09.095Z,21.50
2019-05-21T12:49:35.393Z,21.40
2019-05-21T12:52:04.236Z,21.40
2019-05-21T12:54:32.623Z,21.40
2019-05-21T12:57:01.047Z,21.40
2019-05-21T12:59:29.415Z,21.40
2019-05-21T13:01:57.815Z,21.40
2019-05-21T13:04:26.222Z,21.40
2019-05-21T13:06:54.610Z,21.50
2019-05-21T13:09:32.338Z,21.50
2019-05-21T13:11:53.046Z,21.70
2019-05-21T13:14:21.456Z,21.90
2019-05-21T13:16:49.897Z,22.20
2019-05-21T13:19:18.282Z,22.40
2019-05-21T13:21:46.678Z,22.60
2019-05-21T13:24:15.115Z,22.80
2019-05-21T13:26:43.503Z,23.10
2019-05-21T13:29:11.901Z,23.30
2019-05-21T13:31:40.314Z,23.60
2019-05-21T13:34:08.750Z,24.20
2019-05-21T13:36:37.133Z,24.80
2019-05-21T13:39:06.565Z,25.00
2019-05-21T13:41:34.970Z,24.80
2019-05-21T13:44:03.399Z,24.50
2019-05-21T13:46:35.260Z,24.20
2019-05-21T13:49:01.822Z,24.00
2019-05-21T13:51:30.220Z,23.80
2019-05-21T13:53:58.630Z,23.60
2019-05-21T13:56:27.037Z,23.90
2019-05-21T13:58:55.445Z,24.30
2019-05-21T14:01:39.353Z,24.60
2019-05-21T14:03:54.824Z,24.30
2019-05-21T14:06:23.210Z,24.20
2019-05-21T14:08:51.606Z,24.20
2019-05-21T14:11:20.077Z,24.00
2019-05-21T14:13:48.480Z,23.70
2019-05-21T14:16:16.894Z,23.40
2019-05-21T14:18:45.331Z,23.30
2019-05-21T14:21:13.722Z,23.00
2019-05-21T14:23:42.104Z,22.80
2019-05-21T14:26:10.558Z,22.70
2019-05-21T14:28:38.914Z,22.60
2019-05-21T14:31:07.330Z,22.60
2019-05-21T14:33:35.784Z,22.70
2019-05-21T14:36:04.158Z,22.70
2019-05-21T14:38:32.540Z,22.70
2019-05-21T14:41:00.947Z,23.10
2019-05-21T14:43:29.377Z,23.80
2019-05-21T14:45:57.756Z,25.30
2019-05-21T14:48:26.145Z,27.20
2019-05-21T14:50:54.569Z,28.70
2019-05-21T14:53:22.936Z,29.50
2019-05-21T14:55:51.315Z,29.80
2019-05-21T14:58:19.753Z,29.40
2019-05-21T15:00:48.137Z,28.70
2019-05-21T15:03:24.987Z,27.50
2019-05-21T15:05:46.616Z,26.60
2019-05-21T15:08:15.009Z,25.70
2019-05-21T15:10:48.507Z,25.40
2019-05-21T15:13:13.533Z,24.90
2019-05-21T15:15:41.922Z,24.60
2019-05-21T15:18:10.322Z,24.40
2019-05-21T15:20:40.564Z,24.10
2019-05-21T15:23:09.014Z,23.90
2019-05-21T15:25:37.388Z,23.60
2019-05-21T15:28:05.828Z,23.60
2019-05-21T15:30:36.469Z,23.60
2019-05-21T15:33:04.887Z,23.60
2019-05-21T15:35:33.266Z,23.50
2019-05-21T15:38:01.719Z,23.30
2019-05-21T15:40:30.096Z,23.00
2019-05-21T15:42:58.493Z,22.90
2019-05-21T15:45:26.901Z,22.70
2019-05-21T15:47:55.292Z,22.60
2019-05-21T15:50:23.676Z,22.40
2019-05-21T15:52:52.076Z,22.30
2019-05-21T15:55:20.456Z,22.20
2019-05-21T15:57:48.872Z,22.00
2019-05-21T16:00:17.248Z,22.00
2019-05-21T16:02:45.626Z,21.90
2019-05-21T16:05:14.108Z,21.80
2019-05-21T16:07:42.516Z,21.70
2019-05-21T16:10:10.919Z,21.60
2019-05-21T16:12:39.334Z,21.50
2019-05-21T16:15:07.870Z,21.50
2019-05-21T16:17:36.289Z,21.50
2019-05-21T16:20:06.883Z,21.40
2019-05-21T16:22:35.283Z,21.40
2019-05-21T16:25:05.532Z,21.30
2019-05-21T16:27:33.927Z,21.20
2019-05-21T16:30:02.310Z,21.10
2019-05-21T16:32:30.740Z,21.00
2019-05-21T16:34:59.170Z,20.90
2019-05-21T16:37:27.551Z,20.80
2019-05-21T16:39:55.954Z,20.70
2019-05-21T16:42:24.359Z,20.60
2019-05-21T16:44:52.860Z,20.60
2019-05-21T16:47:21.236Z,20.50
2019-05-21T16:49:49.603Z,20.50
2019-05-21T16:52:18.033Z,20.40
2019-05-21T16:54:46.425Z,20.40
2019-05-21T16:57:14.817Z,20.20
2019-05-21T16:59:43.238Z,20.10
2019-05-21T17:02:11.611Z,20.00
2019-05-21T17:04:40.029Z,19.90
2019-05-21T17:07:08.429Z,19.90
2019-05-21T17:09:36.823Z,19.90
2019-05-21T17:12:05.891Z,19.90
2019-05-21T17:14:34.280Z,19.80
2019-05-21T17:17:02.663Z,19.80
2019-05-21T17:19:31.052Z,19.80
2019-05-21T17:21:59.456Z,19.70
2019-05-21T17:24:27.893Z,19.70
2019-05-21T17:26:56.252Z,19.70
2019-05-21T17:29:24.652Z,19.70
2019-05-21T17:31:53.067Z,19.70
2019-05-21T17:34:21.449Z,19.60
2019-05-21T17:36:49.826Z,19.50
2019-05-21T17:39:18.299Z,19.50
2019-05-21T17:41:46.707Z,19.50
2019-05-21T17:44:15.092Z,19.50
2019-05-21T17:46:43.488Z,19.50
2019-05-21T17:49:11.869Z,19.40
2019-05-21T17:51:40.296Z,19.40
2019-05-21T17:54:08.672Z,19.40
2019-05-21T17:56:37.071Z,19.30
2019-05-21T17:59:05.454Z,19.30
2019-05-21T18:01:33.918Z,19.20
2019-05-21T18:04:02.292Z,19.10
2019-05-21T18:06:31.172Z,19.10
2019-05-21T18:08:59.672Z,19.10
2019-05-21T18:11:28.016Z,19.00
2019-05-21T18:13:56.412Z,19.00
2019-05-21T18:16:25.208Z,18.90
2019-05-21T18:18:53.954Z,18.90
2019-05-21T18:21:23.508Z,18.80
2019-05-21T18:23:51.980Z,18.80
2019-05-21T18:26:20.380Z,18.80
2019-05-21T18:28:48.785Z,18.70
2019-05-21T18:31:17.188Z,18.70
2019-05-21T18:33:45.584Z,18.50
2019-05-21T18:36:13.984Z,18.40
2019-05-21T18:38:42.365Z,18.30
2019-05-21T18:41:10.818Z,18.20
2019-05-21T18:43:39.186Z,18.10
2019-05-21T18:46:07.572Z,18.00
2019-05-21T18:48:36.016Z,18.00
2019-05-21T18:51:04.400Z,17.90
2019-05-21T18:53:32.933Z,17.90
2019-05-21T18:56:01.354Z,17.80
2019-05-21T18:58:29.781Z,17.80
2019-05-21T19:00:58.198Z,17.80
2019-05-21T19:03:26.604Z,17.70
2019-05-21T19:05:55.316Z,17.60
2019-05-21T19:08:23.838Z,17.50
2019-05-21T19:10:52.248Z,17.40
2019-05-21T19:13:20.638Z,17.30
2019-05-21T19:15:50.694Z,17.40
2019-05-21T19:18:19.191Z,17.30
2019-05-21T19:20:51.033Z,17.20
2019-05-21T19:23:19.501Z,17.10
2019-05-21T19:25:47.874Z,17.00
2019-05-21T19:28:35.927Z,16.90
2019-05-21T19:31:04.364Z,16.80
2019-05-21T19:33:32.732Z,16.80
2019-05-21T19:36:01.189Z,16.70
2019-05-21T19:38:29.629Z,16.60
2019-05-21T19:40:57.968Z,16.60
2019-05-21T19:43:26.362Z,16.60
2019-05-21T19:45:54.738Z,16.60
2019-05-21T19:48:23.133Z,16.50
2019-05-21T19:50:51.568Z,16.50
2019-05-21T19:53:19.947Z,16.40
2019-05-21T19:55:48.385Z,16.40
2019-05-21T19:58:16.758Z,16.40
2019-05-21T20:00:52.795Z,16.30
2019-05-21T20:03:21.472Z,16.40
2019-05-21T20:05:49.940Z,16.30
2019-05-21T20:08:18.622Z,16.30
2019-05-21T20:10:47.220Z,16.20
2019-05-21T20:13:15.952Z,16.10
2019-05-21T20:15:44.400Z,16.00
2019-05-21T20:18:13.733Z,15.90
2019-05-21T20:20:42.976Z,15.90
2019-05-21T20:23:13.217Z,15.90
2019-05-21T20:25:55.365Z,15.80
2019-05-21T20:28:11.751Z,15.70
2019-05-21T20:30:44.470Z,15.70
2019-05-21T20:33:12.222Z,15.70
2019-05-21T20:35:41.453Z,15.70
2019-05-21T20:38:10.516Z,15.70
2019-05-21T20:40:39.492Z,15.70
2019-05-21T20:43:08.098Z,15.70
2019-05-21T20:45:38.500Z,15.60
2019-05-21T20:48:07.194Z,15.60
2019-05-21T20:50:36.569Z,15.60
2019-05-21T20:53:24.405Z,15.60
2019-05-21T20:55:53.154Z,15.60
2019-05-21T20:58:21.718Z,15.60
2019-05-21T21:00:54.334Z,15.70
2019-05-21T21:03:23.114Z,15.70
2019-05-21T21:05:51.529Z,15.60
2019-05-21T21:08:20.599Z,15.60
2019-05-21T21:10:49.008Z,15.60
2019-05-21T21:13:18.466Z,15.60
2019-05-21T21:15:47.470Z,15.60
2019-05-21T21:18:15.881Z,15.60
2019-05-21T21:20:44.423Z,15.50
2019-05-21T21:23:14.459Z,15.50
2019-05-21T21:25:43.477Z,15.40
2019-05-21T21:28:11.877Z,15.40
2019-05-21T21:30:40.289Z,15.40
2019-05-21T21:33:10.143Z,15.40
2019-05-21T21:35:38.523Z,15.30
2019-05-21T21:38:08.565Z,15.30
2019-05-21T21:40:36.964Z,15.40
2019-05-21T21:43:07.988Z,15.40
2019-05-21T21:45:35.666Z,15.40
2019-05-21T21:48:04.786Z,15.40
2019-05-21T21:50:33.736Z,15.30
2019-05-21T21:53:02.240Z,15.30
2019-05-21T21:55:32.032Z,15.30
2019-05-21T21:58:00.568Z,15.30
2019-05-21T22:01:00.518Z,15.30
2019-05-21T22:03:30.685Z,15.20
2019-05-21T22:05:59.776Z,15.20
2019-05-21T22:08:29.836Z,15.20
2019-05-21T22:10:58.616Z,15.20
2019-05-21T22:13:27.148Z,15.20
2019-05-21T22:15:56.367Z,15.20
2019-05-21T22:18:25.044Z,15.20
2019-05-21T22:20:53.692Z,15.20
2019-05-21T22:23:22.144Z,15.20
2019-05-21T22:25:50.525Z,15.10
2019-05-21T22:28:18.968Z,15.10
2019-05-21T22:30:47.553Z,15.10
2019-05-21T22:33:17.212Z,15.00
2019-05-21T22:35:45.594Z,14.90
2019-05-21T22:38:14.010Z,14.90
2019-05-21T22:40:42.393Z,14.90
2019-05-21T22:43:10.807Z,14.80
2019-05-21T22:45:39.260Z,14.90
2019-05-21T22:48:07.629Z,14.90
2019-05-21T22:50:36.078Z,14.90
2019-05-21T22:53:04.551Z,14.80
2019-05-21T22:55:32.920Z,14.90
2019-05-21T22:58:01.332Z,14.80
2019-05-21T23:00:31.716Z,14.80
2019-05-21T23:03:00.178Z,14.80
2019-05-21T23:05:28.584Z,14.80
2019-05-21T23:07:57.175Z,14.80
2019-05-21T23:10:25.557Z,14.70
2019-05-21T23:12:54.005Z,14.70
2019-05-21T23:15:25.307Z,14.70
2019-05-21T23:17:52.865Z,14.70
2019-05-21T23:20:21.320Z,14.70
2019-05-21T23:22:51.358Z,14.70
2019-05-21T23:25:20.976Z,14.60
2019-05-21T23:27:49.409Z,14.70
2019-05-21T23:30:19.850Z,14.70
2019-05-21T23:32:48.304Z,14.70
2019-05-21T23:35:17.259Z,14.60
2019-05-21T23:37:47.422Z,14.70
2019-05-21T23:40:15.947Z,14.60
2019-05-21T23:42:44.332Z,14.60
2019-05-21T23:45:14.345Z,14.60
2019-05-21T23:47:42.748Z,14.60
2019-05-21T23:50:11.179Z,14.60
2019-05-21T23:52:40.178Z,14.60
2019-05-21T23:55:08.635Z,14.50
2019-05-21T23:57:37.006Z,14.50
